sensor_id;sensor_type;location;lat;lon;timestamp;pressure;altitude;pressure_sealevel;temperature;humidity
76205;BME280;64986;55.672;37.628;2023-09-18T00:00:44;100051.34;;;12.19;nan
76205;BME280;64986;55.672;37.628;2023-09-18T00:03:09;100051.75;;;12.29;nan
76205;BME280;64986;55.672;37.628;2023-09-18T00:05:35;100050.16;;;12.41;nan
76205;BME280;64986;55.672;37.628;2023-09-18T00:08:01;100057.06;;;12.42;nan
76205;BME280;64986;55.672;37.628;2023-09-18T00:10:29;100049.34;;;12.47;nan
76205;BME280;64986;55.672;37.628;2023-09-18T00:12:56;100045.88;;;12.54;nan
76205;BME280;64986;55.672;37.628;2023-09-18T00:15:22;100053.41;;;12.63;nan
76205;BME280;64986;55.672;37.628;2023-09-18T00:17:47;100043.22;;;12.67;nan
76205;BME280;64986;55.672;37.628;2023-09-18T00:20:13;100058.47;;;12.65;nan
76205;BME280;64986;55.672;37.628;2023-09-18T00:22:39;100060.69;;;12.68;nan
76205;BME280;64986;55.672;37.628;2023-09-18T00:25:05;100056.06;;;12.70;nan
76205;BME280;64986;55.672;37.628;2023-09-18T00:27:30;100047.91;;;12.78;nan
76205;BME280;64986;55.672;37.628;2023-09-18T00:29:58;100051.53;;;12.84;nan
76205;BME280;64986;55.672;37.628;2023-09-18T00:32:23;100039.13;;;12.97;nan
76205;BME280;64986;55.672;37.628;2023-09-18T00:34:49;100048.06;;;12.96;nan
76205;BME280;64986;55.672;37.628;2023-09-18T00:37:15;100043.81;;;13.02;nan
76205;BME280;64986;55.672;37.628;2023-09-18T00:39:42;100044.63;;;12.96;nan
76205;BME280;64986;55.672;37.628;2023-09-18T00:42:09;100051.91;;;13.07;nan
76205;BME280;64986;55.672;37.628;2023-09-18T00:44:39;100046.59;;;13.14;nan
76205;BME280;64986;55.672;37.628;2023-09-18T00:47:05;100056.38;;;13.06;nan
76205;BME280;64986;55.672;37.628;2023-09-18T00:49:32;100049.25;;;13.07;nan
76205;BME280;64986;55.672;37.628;2023-09-18T00:51:58;100060.47;;;13.02;nan
76205;BME280;64986;55.672;37.628;2023-09-18T00:54:24;100050.69;;;13.10;nan
76205;BME280;64986;55.672;37.628;2023-09-18T00:56:49;100038.69;;;13.14;nan
76205;BME280;64986;55.672;37.628;2023-09-18T00:59:19;100044.16;;;13.19;nan
76205;BME280;64986;55.672;37.628;2023-09-18T01:01:47;100048.84;;;13.30;nan
76205;BME280;64986;55.672;37.628;2023-09-18T01:04:15;100044.56;;;13.29;nan
76205;BME280;64986;55.672;37.628;2023-09-18T01:06:41;100038.47;;;13.28;nan
76205;BME280;64986;55.672;37.628;2023-09-18T01:09:07;100038.44;;;13.35;nan
76205;BME280;64986;55.672;37.628;2023-09-18T01:12:02;100022.19;;;13.31;nan
76205;BME280;64986;55.672;37.628;2023-09-18T01:14:37;100031.94;;;13.38;nan
76205;BME280;64986;55.672;37.628;2023-09-18T01:17:05;100028.63;;;13.49;nan
76205;BME280;64986;55.672;37.628;2023-09-18T01:19:41;100035.56;;;13.43;nan
76205;BME280;64986;55.672;37.628;2023-09-18T01:22:10;100021.00;;;13.21;nan
76205;BME280;64986;55.672;37.628;2023-09-18T01:24:37;100032.50;;;13.46;nan
76205;BME280;64986;55.672;37.628;2023-09-18T01:27:04;100030.72;;;13.33;nan
76205;BME280;64986;55.672;37.628;2023-09-18T01:29:30;100029.13;;;13.13;nan
76205;BME280;64986;55.672;37.628;2023-09-18T01:31:56;100018.13;;;13.22;nan
76205;BME280;64986;55.672;37.628;2023-09-18T01:34:27;100012.66;;;13.11;nan
76205;BME280;64986;55.672;37.628;2023-09-18T01:36:55;100003.13;;;13.10;nan
76205;BME280;64986;55.672;37.628;2023-09-18T01:39:22;100013.28;;;13.06;nan
76205;BME280;64986;55.672;37.628;2023-09-18T01:41:50;100017.59;;;13.00;nan
76205;BME280;64986;55.672;37.628;2023-09-18T01:44:15;100014.94;;;13.00;nan
76205;BME280;64986;55.672;37.628;2023-09-18T01:46:41;100013.50;;;12.91;nan
76205;BME280;64986;55.672;37.628;2023-09-18T01:49:07;100008.44;;;12.90;nan
76205;BME280;64986;55.672;37.628;2023-09-18T01:51:33;99999.31;;;12.92;nan
76205;BME280;64986;55.672;37.628;2023-09-18T01:53:58;100004.59;;;12.92;nan
76205;BME280;64986;55.672;37.628;2023-09-18T01:56:24;100013.28;;;12.99;nan
76205;BME280;64986;55.672;37.628;2023-09-18T01:58:49;100006.81;;;12.95;nan
76205;BME280;64986;55.672;37.628;2023-09-18T02:01:15;99997.50;;;12.86;nan
76205;BME280;64986;55.672;37.628;2023-09-18T02:03:41;99992.81;;;12.75;nan
76205;BME280;64986;55.672;37.628;2023-09-18T02:06:10;100007.25;;;12.86;nan
76205;BME280;64986;55.672;37.628;2023-09-18T02:08:35;99999.13;;;12.87;nan
76205;BME280;64986;55.672;37.628;2023-09-18T02:11:01;99984.91;;;12.75;nan
76205;BME280;64986;55.672;37.628;2023-09-18T02:13:27;99986.94;;;12.86;nan
76205;BME280;64986;55.672;37.628;2023-09-18T02:15:53;99998.31;;;12.87;nan
76205;BME280;64986;55.672;37.628;2023-09-18T02:18:19;99993.41;;;12.84;nan
76205;BME280;64986;55.672;37.628;2023-09-18T02:20:44;99976.16;;;12.74;nan
76205;BME280;64986;55.672;37.628;2023-09-18T02:23:13;99977.97;;;12.87;nan
76205;BME280;64986;55.672;37.628;2023-09-18T02:25:38;99986.91;;;12.93;nan
76205;BME280;64986;55.672;37.628;2023-09-18T02:28:06;99978.00;;;12.81;nan
76205;BME280;64986;55.672;37.628;2023-09-18T02:30:31;99980.84;;;12.86;nan
76205;BME280;64986;55.672;37.628;2023-09-18T02:32:57;99979.59;;;12.88;nan
76205;BME280;64986;55.672;37.628;2023-09-18T02:35:22;99977.75;;;12.89;nan
76205;BME280;64986;55.672;37.628;2023-09-18T02:37:48;99978.00;;;12.81;nan
76205;BME280;64986;55.672;37.628;2023-09-18T02:40:13;99980.22;;;12.77;nan
76205;BME280;64986;55.672;37.628;2023-09-18T02:42:39;99972.13;;;12.72;nan
76205;BME280;64986;55.672;37.628;2023-09-18T02:45:05;99976.38;;;12.66;nan
76205;BME280;64986;55.672;37.628;2023-09-18T02:47:31;99972.28;;;12.77;nan
76205;BME280;64986;55.672;37.628;2023-09-18T02:49:57;99973.31;;;12.76;nan
76205;BME280;64986;55.672;37.628;2023-09-18T02:52:22;99975.34;;;12.74;nan
76205;BME280;64986;55.672;37.628;2023-09-18T02:54:48;99970.31;;;12.59;nan
76205;BME280;64986;55.672;37.628;2023-09-18T02:57:14;99961.78;;;12.64;nan
76205;BME280;64986;55.672;37.628;2023-09-18T02:59:39;99963.78;;;12.62;nan
76205;BME280;64986;55.672;37.628;2023-09-18T03:02:05;99970.28;;;12.72;nan
76205;BME280;64986;55.672;37.628;2023-09-18T03:04:31;99967.06;;;12.64;nan
76205;BME280;64986;55.672;37.628;2023-09-18T03:06:56;99965.63;;;12.61;nan
76205;BME280;64986;55.672;37.628;2023-09-18T03:09:22;99956.50;;;12.50;nan
76205;BME280;64986;55.672;37.628;2023-09-18T03:11:47;99958.50;;;12.62;nan
76205;BME280;64986;55.672;37.628;2023-09-18T03:14:13;99959.53;;;12.61;nan
76205;BME280;64986;55.672;37.628;2023-09-18T03:16:38;99956.50;;;12.57;nan
76205;BME280;64986;55.672;37.628;2023-09-18T03:19:04;99966.03;;;12.71;nan
76205;BME280;64986;55.672;37.628;2023-09-18T03:21:29;99968.66;;;12.71;nan
76205;BME280;64986;55.672;37.628;2023-09-18T03:23:58;99964.19;;;12.72;nan
76205;BME280;64986;55.672;37.628;2023-09-18T03:26:24;99969.66;;;12.77;nan
76205;BME280;64986;55.672;37.628;2023-09-18T03:28:49;99976.59;;;12.71;nan
76205;BME280;64986;55.672;37.628;2023-09-18T03:31:14;99972.34;;;12.70;nan
76205;BME280;64986;55.672;37.628;2023-09-18T03:33:40;99965.00;;;12.66;nan
76205;BME280;64986;55.672;37.628;2023-09-18T03:36:05;99982.47;;;12.73;nan
76205;BME280;64986;55.672;37.628;2023-09-18T03:38:31;99976.38;;;12.73;nan
76205;BME280;64986;55.672;37.628;2023-09-18T03:40:59;99975.53;;;12.92;nan
76205;BME280;64986;55.672;37.628;2023-09-18T03:43:26;99973.09;;;12.84;nan
76205;BME280;64986;55.672;37.628;2023-09-18T03:45:51;99980.59;;;12.94;nan
76205;BME280;64986;55.672;37.628;2023-09-18T03:48:17;99971.66;;;12.88;nan
76205;BME280;64986;55.672;37.628;2023-09-18T03:50:42;99983.03;;;12.95;nan
76205;BME280;64986;55.672;37.628;2023-09-18T03:53:09;99972.69;;;12.87;nan
76205;BME280;64986;55.672;37.628;2023-09-18T03:55:34;99974.44;;;13.06;nan
76205;BME280;64986;55.672;37.628;2023-09-18T03:58:00;99966.72;;;13.12;nan
76205;BME280;64986;55.672;37.628;2023-09-18T04:00:25;99978.75;;;13.01;nan
76205;BME280;64986;55.672;37.628;2023-09-18T04:02:51;99975.91;;;13.02;nan
76205;BME280;64986;55.672;37.628;2023-09-18T04:05:17;99966.50;;;13.13;nan
76205;BME280;64986;55.672;37.628;2023-09-18T04:07:42;99971.00;;;13.06;nan
76205;BME280;64986;55.672;37.628;2023-09-18T04:10:12;99980.94;;;13.11;nan
76205;BME280;64986;55.672;37.628;2023-09-18T04:12:43;99978.28;;;13.24;nan
76205;BME280;64986;55.672;37.628;2023-09-18T04:15:15;99958.97;;;13.23;nan
76205;BME280;64986;55.672;37.628;2023-09-18T04:17:40;99963.22;;;13.31;nan
76205;BME280;64986;55.672;37.628;2023-09-18T04:20:06;99960.19;;;13.14;nan
76205;BME280;64986;55.672;37.628;2023-09-18T04:22:32;99962.59;;;13.29;nan
76205;BME280;64986;55.672;37.628;2023-09-18T04:24:57;99966.78;;;13.43;nan
76205;BME280;64986;55.672;37.628;2023-09-18T04:27:23;99971.31;;;13.36;nan
76205;BME280;64986;55.672;37.628;2023-09-18T04:29:48;99968.59;;;13.49;nan
76205;BME280;64986;55.672;37.628;2023-09-18T04:32:14;99943.72;;;13.25;nan
76205;BME280;64986;55.672;37.628;2023-09-18T04:34:39;99960.56;;;13.31;nan
76205;BME280;64986;55.672;37.628;2023-09-18T04:37:05;99958.53;;;13.33;nan
76205;BME280;64986;55.672;37.628;2023-09-18T04:39:31;99966.72;;;13.56;nan
76205;BME280;64986;55.672;37.628;2023-09-18T04:42:00;99958.31;;;13.66;nan
76205;BME280;64986;55.672;37.628;2023-09-18T04:44:26;99963.47;;;13.61;nan
76205;BME280;64986;55.672;37.628;2023-09-18T04:46:52;99954.50;;;13.62;nan
76205;BME280;64986;55.672;37.628;2023-09-18T04:49:17;99968.06;;;13.72;nan
76205;BME280;64986;55.672;37.628;2023-09-18T04:51:43;99954.78;;;13.79;nan
76205;BME280;64986;55.672;37.628;2023-09-18T04:54:09;99952.06;;;13.92;nan
76205;BME280;64986;55.672;37.628;2023-09-18T04:56:34;99949.94;;;13.76;nan
76205;BME280;64986;55.672;37.628;2023-09-18T04:59:00;99960.09;;;13.79;nan
76205;BME280;64986;55.672;37.628;2023-09-18T05:01:25;99962.44;;;13.94;nan
76205;BME280;64986;55.672;37.628;2023-09-18T05:03:52;99952.66;;;13.94;nan
76205;BME280;64986;55.672;37.628;2023-09-18T05:06:17;99965.63;;;14.02;nan
76205;BME280;64986;55.672;37.628;2023-09-18T05:08:44;99954.72;;;14.17;nan
76205;BME280;64986;55.672;37.628;2023-09-18T05:11:09;99963.78;;;14.28;nan
76205;BME280;64986;55.672;37.628;2023-09-18T05:13:35;99957.03;;;14.32;nan
76205;BME280;64986;55.672;37.628;2023-09-18T05:16:00;99951.09;;;14.36;nan
76205;BME280;64986;55.672;37.628;2023-09-18T05:18:26;99967.63;;;14.32;nan
76205;BME280;64986;55.672;37.628;2023-09-18T05:20:52;99964.09;;;14.38;nan
76205;BME280;64986;55.672;37.628;2023-09-18T05:23:17;99955.72;;;14.41;nan
76205;BME280;64986;55.672;37.628;2023-09-18T05:25:43;99969.91;;;14.28;nan
76205;BME280;64986;55.672;37.628;2023-09-18T05:28:09;99972.88;;;14.38;nan
76205;BME280;64986;55.672;37.628;2023-09-18T05:30:35;99973.03;;;14.43;nan
76205;BME280;64986;55.672;37.628;2023-09-18T05:33:04;99983.38;;;14.20;nan
76205;BME280;64986;55.672;37.628;2023-09-18T05:38:02;99982.44;;;14.39;nan
76205;BME280;64986;55.672;37.628;2023-09-18T05:40:28;99971.41;;;14.67;nan
76205;BME280;64986;55.672;37.628;2023-09-18T05:42:55;99978.91;;;14.70;nan
76205;BME280;64986;55.672;37.628;2023-09-18T05:45:21;99978.69;;;14.72;nan
76205;BME280;64986;55.672;37.628;2023-09-18T05:47:47;99980.75;;;14.88;nan
76205;BME280;64986;55.672;37.628;2023-09-18T05:50:13;99985.84;;;14.90;nan
76205;BME280;64986;55.672;37.628;2023-09-18T05:52:42;99986.66;;;14.90;nan
76205;BME280;64986;55.672;37.628;2023-09-18T05:55:08;99984.06;;;15.02;nan
76205;BME280;64986;55.672;37.628;2023-09-18T05:57:34;99986.81;;;15.14;nan
76205;BME280;64986;55.672;37.628;2023-09-18T05:59:59;99985.31;;;15.18;nan
76205;BME280;64986;55.672;37.628;2023-09-18T06:02:25;99980.16;;;15.23;nan
76205;BME280;64986;55.672;37.628;2023-09-18T06:04:58;99971.97;;;15.24;nan
76205;BME280;64986;55.672;37.628;2023-09-18T06:07:26;99976.53;;;15.36;nan
76205;BME280;64986;55.672;37.628;2023-09-18T06:09:52;99965.16;;;15.47;nan
76205;BME280;64986;55.672;37.628;2023-09-18T06:12:18;99972.84;;;15.37;nan
76205;BME280;64986;55.672;37.628;2023-09-18T06:14:43;99980.22;;;15.35;nan
76205;BME280;64986;55.672;37.628;2023-09-18T06:17:10;99964.38;;;15.28;nan
76205;BME280;64986;55.672;37.628;2023-09-18T06:19:36;99981.31;;;15.45;nan
76205;BME280;64986;55.672;37.628;2023-09-18T06:22:02;99976.22;;;15.44;nan
76205;BME280;64986;55.672;37.628;2023-09-18T06:24:27;99973.22;;;15.70;nan
76205;BME280;64986;55.672;37.628;2023-09-18T06:26:53;99973.28;;;15.94;nan
76205;BME280;64986;55.672;37.628;2023-09-18T06:29:19;99971.13;;;16.14;nan
76205;BME280;64986;55.672;37.628;2023-09-18T06:31:44;99964.00;;;16.50;nan
76205;BME280;64986;55.672;37.628;2023-09-18T06:34:10;99970.38;;;16.72;nan
76205;BME280;64986;55.672;37.628;2023-09-18T06:36:36;99971.38;;;16.83;nan
76205;BME280;64986;55.672;37.628;2023-09-18T06:39:02;99979.44;;;17.00;nan
76205;BME280;64986;55.672;37.628;2023-09-18T06:41:28;99976.09;;;16.92;nan
76205;BME280;64986;55.672;37.628;2023-09-18T06:43:53;99979.31;;;17.06;nan
76205;BME280;64986;55.672;37.628;2023-09-18T06:46:19;99978.31;;;16.96;nan
76205;BME280;64986;55.672;37.628;2023-09-18T06:48:46;99975.78;;;17.29;nan
76205;BME280;64986;55.672;37.628;2023-09-18T06:51:15;99986.84;;;17.38;nan
76205;BME280;64986;55.672;37.628;2023-09-18T06:53:41;99972.00;;;17.54;nan
76205;BME280;64986;55.672;37.628;2023-09-18T06:56:06;99970.56;;;17.63;nan
76205;BME280;64986;55.672;37.628;2023-09-18T06:58:32;99987.22;;;17.41;nan
76205;BME280;64986;55.672;37.628;2023-09-18T07:00:57;99976.19;;;17.50;nan
76205;BME280;64986;55.672;37.628;2023-09-18T07:03:23;99978.75;;;17.44;nan
76205;BME280;64986;55.672;37.628;2023-09-18T07:05:49;99968.34;;;17.43;nan
76205;BME280;64986;55.672;37.628;2023-09-18T07:08:14;99978.94;;;17.83;nan
76205;BME280;64986;55.672;37.628;2023-09-18T07:10:44;99979.94;;;18.11;nan
76205;BME280;64986;55.672;37.628;2023-09-18T07:13:10;99978.06;;;18.28;nan
76205;BME280;64986;55.672;37.628;2023-09-18T07:15:36;99976.56;;;18.32;nan
76205;BME280;64986;55.672;37.628;2023-09-18T07:18:02;99993.34;;;18.49;nan
76205;BME280;64986;55.672;37.628;2023-09-18T07:20:27;99988.97;;;18.60;nan
76205;BME280;64986;55.672;37.628;2023-09-18T07:22:53;100004.72;;;18.62;nan
76205;BME280;64986;55.672;37.628;2023-09-18T07:25:19;99991.81;;;18.70;nan
76205;BME280;64986;55.672;37.628;2023-09-18T07:27:44;100005.03;;;18.65;nan
76205;BME280;64986;55.672;37.628;2023-09-18T07:30:14;100005.59;;;18.50;nan
76205;BME280;64986;55.672;37.628;2023-09-18T07:32:45;100006.75;;;18.71;nan
76205;BME280;64986;55.672;37.628;2023-09-18T07:35:11;99999.88;;;18.75;nan
76205;BME280;64986;55.672;37.628;2023-09-18T07:37:38;100000.78;;;18.47;nan
76205;BME280;64986;55.672;37.628;2023-09-18T07:40:05;100003.19;;;18.66;nan
76205;BME280;64986;55.672;37.628;2023-09-18T07:42:31;99986.03;;;18.78;nan
76205;BME280;64986;55.672;37.628;2023-09-18T07:44:57;100013.22;;;18.25;nan
76205;BME280;64986;55.672;37.628;2023-09-18T07:47:23;100012.06;;;18.04;nan
76205;BME280;64986;55.672;37.628;2023-09-18T07:49:48;100018.03;;;17.94;nan
76205;BME280;64986;55.672;37.628;2023-09-18T07:52:14;100014.56;;;18.11;nan
76205;BME280;64986;55.672;37.628;2023-09-18T07:54:40;100029.69;;;18.22;nan
76205;BME280;64986;55.672;37.628;2023-09-18T07:57:06;100022.81;;;18.26;nan
76205;BME280;64986;55.672;37.628;2023-09-18T07:59:37;100012.50;;;18.46;nan
76205;BME280;64986;55.672;37.628;2023-09-18T08:02:04;100019.22;;;19.04;nan
76205;BME280;64986;55.672;37.628;2023-09-18T08:04:33;100025.31;;;19.44;nan
76205;BME280;64986;55.672;37.628;2023-09-18T08:06:59;100020.09;;;19.32;nan
76205;BME280;64986;55.672;37.628;2023-09-18T08:09:25;100030.31;;;19.40;nan
76205;BME280;64986;55.672;37.628;2023-09-18T08:11:54;100028.00;;;19.49;nan
76205;BME280;64986;55.672;37.628;2023-09-18T08:14:21;100023.66;;;19.64;nan
76205;BME280;64986;55.672;37.628;2023-09-18T08:16:47;100018.94;;;19.72;nan
76205;BME280;64986;55.672;37.628;2023-09-18T08:19:16;100023.13;;;19.62;nan
76205;BME280;64986;55.672;37.628;2023-09-18T08:21:45;100014.56;;;19.60;nan
76205;BME280;64986;55.672;37.628;2023-09-18T08:24:11;100013.44;;;19.34;nan
76205;BME280;64986;55.672;37.628;2023-09-18T08:26:37;100030.72;;;18.88;nan
76205;BME280;64986;55.672;37.628;2023-09-18T08:29:03;100026.88;;;18.45;nan
76205;BME280;64986;55.672;37.628;2023-09-18T08:31:28;100025.19;;;18.39;nan
76205;BME280;64986;55.672;37.628;2023-09-18T08:33:57;100015.63;;;18.43;nan
76205;BME280;64986;55.672;37.628;2023-09-18T08:36:22;100021.72;;;18.39;nan
76205;BME280;64986;55.672;37.628;2023-09-18T08:38:48;100028.50;;;18.46;nan
76205;BME280;64986;55.672;37.628;2023-09-18T08:41:14;100036.56;;;18.35;nan
76205;BME280;64986;55.672;37.628;2023-09-18T08:43:43;100015.88;;;18.42;nan
76205;BME280;64986;55.672;37.628;2023-09-18T08:46:09;100016.69;;;18.59;nan
76205;BME280;64986;55.672;37.628;2023-09-18T08:48:35;100025.38;;;18.88;nan
76205;BME280;64986;55.672;37.628;2023-09-18T08:51:03;100020.25;;;19.47;nan
76205;BME280;64986;55.672;37.628;2023-09-18T08:53:34;100016.66;;;20.12;nan
76205;BME280;64986;55.672;37.628;2023-09-18T08:56:00;100014.81;;;20.13;nan
76205;BME280;64986;55.672;37.628;2023-09-18T08:58:37;100011.19;;;20.29;nan
76205;BME280;64986;55.672;37.628;2023-09-18T09:01:05;100009.06;;;19.72;nan
76205;BME280;64986;55.672;37.628;2023-09-18T09:03:41;100007.25;;;19.78;nan
76205;BME280;64986;55.672;37.628;2023-09-18T09:06:08;99999.25;;;19.78;nan
76205;BME280;64986;55.672;37.628;2023-09-18T09:08:34;100001.72;;;19.57;nan
76205;BME280;64986;55.672;37.628;2023-09-18T09:11:00;100013.00;;;19.64;nan
76205;BME280;64986;55.672;37.628;2023-09-18T09:13:26;100017.34;;;19.71;nan
76205;BME280;64986;55.672;37.628;2023-09-18T09:15:53;100017.53;;;19.64;nan
76205;BME280;64986;55.672;37.628;2023-09-18T09:18:22;100023.25;;;19.73;nan
76205;BME280;64986;55.672;37.628;2023-09-18T09:20:56;100020.28;;;19.96;nan
76205;BME280;64986;55.672;37.628;2023-09-18T09:23:23;100025.50;;;19.59;nan
76205;BME280;64986;55.672;37.628;2023-09-18T09:25:49;100018.03;;;19.39;nan
76205;BME280;64986;55.672;37.628;2023-09-18T09:28:15;100018.59;;;19.19;nan
76205;BME280;64986;55.672;37.628;2023-09-18T09:30:42;100024.91;;;18.91;nan
76205;BME280;64986;55.672;37.628;2023-09-18T09:33:11;100028.63;;;18.90;nan
76205;BME280;64986;55.672;37.628;2023-09-18T09:35:38;100034.78;;;18.91;nan
76205;BME280;64986;55.672;37.628;2023-09-18T09:38:12;100040.75;;;18.81;nan
76205;BME280;64986;55.672;37.628;2023-09-18T09:40:41;100042.63;;;18.47;nan
76205;BME280;64986;55.672;37.628;2023-09-18T09:43:10;100041.47;;;18.43;nan
76205;BME280;64986;55.672;37.628;2023-09-18T09:45:36;100044.31;;;18.36;nan
76205;BME280;64986;55.672;37.628;2023-09-18T09:48:04;100037.84;;;18.15;nan
76205;BME280;64986;55.672;37.628;2023-09-18T09:50:30;100052.44;;;18.13;nan
76205;BME280;64986;55.672;37.628;2023-09-18T09:52:57;100034.94;;;18.50;nan
76205;BME280;64986;55.672;37.628;2023-09-18T09:55:32;100031.63;;;18.60;nan
76205;BME280;64986;55.672;37.628;2023-09-18T09:57:59;100021.69;;;18.72;nan
76205;BME280;64986;55.672;37.628;2023-09-18T10:00:31;100025.22;;;19.17;nan
76205;BME280;64986;55.672;37.628;2023-09-18T10:03:03;100027.13;;;19.60;nan
76205;BME280;64986;55.672;37.628;2023-09-18T10:05:32;100015.31;;;19.83;nan
76205;BME280;64986;55.672;37.628;2023-09-18T10:08:02;100018.28;;;20.13;nan
76205;BME280;64986;55.672;37.628;2023-09-18T10:10:31;100023.75;;;20.29;nan
76205;BME280;64986;55.672;37.628;2023-09-18T10:13:04;100036.09;;;20.35;nan
76205;BME280;64986;55.672;37.628;2023-09-18T10:15:33;100024.50;;;20.24;nan
76205;BME280;64986;55.672;37.628;2023-09-18T10:18:00;100031.44;;;20.52;nan
76205;BME280;64986;55.672;37.628;2023-09-18T10:20:28;100039.06;;;20.38;nan
76205;BME280;64986;55.672;37.628;2023-09-18T10:22:56;100036.25;;;19.91;nan
76205;BME280;64986;55.672;37.628;2023-09-18T10:25:29;100031.41;;;19.61;nan
76205;BME280;64986;55.672;37.628;2023-09-18T10:27:57;100033.59;;;19.47;nan
76205;BME280;64986;55.672;37.628;2023-09-18T10:30:25;100031.53;;;19.27;nan
76205;BME280;64986;55.672;37.628;2023-09-18T10:32:52;100037.84;;;19.43;nan
76205;BME280;64986;55.672;37.628;2023-09-18T10:35:19;100033.25;;;19.38;nan
76205;BME280;64986;55.672;37.628;2023-09-18T10:37:46;100033.59;;;19.47;nan
76205;BME280;64986;55.672;37.628;2023-09-18T10:40:13;100034.75;;;19.73;nan
76205;BME280;64986;55.672;37.628;2023-09-18T10:42:41;100034.38;;;19.91;nan
76205;BME280;64986;55.672;37.628;2023-09-18T10:45:08;100035.78;;;20.58;nan
76205;BME280;64986;55.672;37.628;2023-09-18T10:47:38;100037.38;;;20.59;nan
76205;BME280;64986;55.672;37.628;2023-09-18T10:50:06;100031.19;;;19.94;nan
76205;BME280;64986;55.672;37.628;2023-09-18T10:52:34;100032.91;;;19.79;nan
76205;BME280;64986;55.672;37.628;2023-09-18T10:55:01;100030.09;;;19.90;nan
76205;BME280;64986;55.672;37.628;2023-09-18T10:57:33;100030.66;;;20.99;nan
76205;BME280;64986;55.672;37.628;2023-09-18T11:00:01;100030.19;;;24.06;nan
76205;BME280;64986;55.672;37.628;2023-09-18T11:02:40;100022.75;;;24.61;nan
76205;BME280;64986;55.672;37.628;2023-09-18T11:05:06;100024.91;;;23.91;nan
76205;BME280;64986;55.672;37.628;2023-09-18T11:07:31;100022.13;;;24.40;nan
76205;BME280;64986;55.672;37.628;2023-09-18T11:09:57;100017.25;;;26.65;nan
76205;BME280;64986;55.672;37.628;2023-09-18T11:12:42;100015.84;;;30.28;nan
76205;BME280;64986;55.672;37.628;2023-09-18T11:15:09;100017.75;;;29.49;nan
76205;BME280;64986;55.672;37.628;2023-09-18T11:17:58;100009.94;;;29.91;nan
76205;BME280;64986;55.672;37.628;2023-09-18T11:20:24;100014.44;;;28.33;nan
76205;BME280;64986;55.672;37.628;2023-09-18T11:22:58;100015.50;;;27.15;nan
76205;BME280;64986;55.672;37.628;2023-09-18T11:25:42;100005.63;;;27.47;nan
76205;BME280;64986;55.672;37.628;2023-09-18T11:28:15;100007.75;;;31.55;nan
76205;BME280;64986;55.672;37.628;2023-09-18T11:30:51;100010.69;;;34.59;nan
76205;BME280;64986;55.672;37.628;2023-09-18T11:33:44;100012.25;;;35.81;nan
76205;BME280;64986;55.672;37.628;2023-09-18T11:36:14;100019.81;;;35.14;nan
76205;BME280;64986;55.672;37.628;2023-09-18T11:38:56;100020.88;;;33.22;nan
76205;BME280;64986;55.672;37.628;2023-09-18T11:41:24;100014.47;;;30.98;nan
76205;BME280;64986;55.672;37.628;2023-09-18T11:43:51;100036.06;;;29.26;nan
76205;BME280;64986;55.672;37.628;2023-09-18T11:46:18;100022.19;;;27.31;nan
76205;BME280;64986;55.672;37.628;2023-09-18T11:48:47;100036.13;;;25.43;nan
76205;BME280;64986;55.672;37.628;2023-09-18T11:51:21;100030.66;;;24.47;nan
76205;BME280;64986;55.672;37.628;2023-09-18T11:53:47;100014.59;;;23.64;nan
76205;BME280;64986;55.672;37.628;2023-09-18T11:56:15;100022.69;;;23.59;nan
76205;BME280;64986;55.672;37.628;2023-09-18T11:58:51;100029.69;;;24.04;nan
76205;BME280;64986;55.672;37.628;2023-09-18T12:01:20;100024.41;;;23.89;nan
76205;BME280;64986;55.672;37.628;2023-09-18T12:03:53;100033.88;;;25.50;nan
76205;BME280;64986;55.672;37.628;2023-09-18T12:06:19;100023.84;;;24.84;nan
76205;BME280;64986;55.672;37.628;2023-09-18T12:08:45;100032.03;;;23.71;nan
76205;BME280;64986;55.672;37.628;2023-09-18T12:11:12;100032.34;;;22.85;nan
76205;BME280;64986;55.672;37.628;2023-09-18T12:13:43;100035.31;;;22.63;nan
76205;BME280;64986;55.672;37.628;2023-09-18T12:16:08;100020.31;;;22.21;nan
76205;BME280;64986;55.672;37.628;2023-09-18T12:18:35;100033.16;;;22.70;nan
76205;BME280;64986;55.672;37.628;2023-09-18T12:21:05;100023.28;;;22.30;nan
76205;BME280;64986;55.672;37.628;2023-09-18T12:23:42;100035.25;;;21.76;nan
76205;BME280;64986;55.672;37.628;2023-09-18T12:26:11;100043.50;;;20.97;nan
76205;BME280;64986;55.672;37.628;2023-09-18T12:28:41;100044.94;;;20.67;nan
76205;BME280;64986;55.672;37.628;2023-09-18T12:31:12;100041.97;;;20.64;nan
76205;BME280;64986;55.672;37.628;2023-09-18T12:33:39;100049.69;;;20.28;nan
76205;BME280;64986;55.672;37.628;2023-09-18T12:36:06;100042.13;;;20.20;nan
76205;BME280;64986;55.672;37.628;2023-09-18T12:38:32;100038.13;;;19.90;nan
76205;BME280;64986;55.672;37.628;2023-09-18T12:40:59;100046.06;;;19.85;nan
76205;BME280;64986;55.672;37.628;2023-09-18T12:43:41;100033.56;;;19.91;nan
76205;BME280;64986;55.672;37.628;2023-09-18T12:46:08;100037.09;;;19.97;nan
76205;BME280;64986;55.672;37.628;2023-09-18T12:48:38;100048.69;;;20.07;nan
76205;BME280;64986;55.672;37.628;2023-09-18T12:51:07;100043.09;;;20.09;nan
76205;BME280;64986;55.672;37.628;2023-09-18T12:53:33;100041.59;;;19.91;nan
76205;BME280;64986;55.672;37.628;2023-09-18T12:56:07;100047.56;;;20.30;nan
76205;BME280;64986;55.672;37.628;2023-09-18T12:58:34;100051.16;;;20.14;nan
76205;BME280;64986;55.672;37.628;2023-09-18T13:01:04;100049.00;;;19.84;nan
76205;BME280;64986;55.672;37.628;2023-09-18T13:03:41;100047.22;;;19.67;nan
76205;BME280;64986;55.672;37.628;2023-09-18T13:06:16;100037.97;;;19.53;nan
76205;BME280;64986;55.672;37.628;2023-09-18T13:08:46;100041.97;;;19.56;nan